sensor_id;sensor_type;location;lat;lon;timestamp;P1;durP1;ratioP1;P2;durP2;ratioP2
9976;SDS011;5029;47.378;11.776;2023-02-02T00:04:49;2.67;;;0.70;;
9976;SDS011;5029;47.378;11.776;2023-02-02T00:09:54;0.93;;;0.77;;
9976;SDS011;5029;47.378;11.776;2023-02-02T00:14:58;2.00;;;0.70;;
9976;SDS011;5029;47.378;11.776;2023-02-02T00:20:01;1.13;;;0.77;;
9976;SDS011;5029;47.378;11.776;2023-02-02T00:25:07;1.40;;;0.67;;
9976;SDS011;5029;47.378;11.776;2023-02-02T00:35:15;0.97;;;0.70;;
9976;SDS011;5029;47.378;11.776;2023-02-02T00:40:20;1.63;;;0.73;;
9976;SDS011;5029;47.378;11.776;2023-02-02T00:45:23;2.33;;;0.50;;
9976;SDS011;5029;47.378;11.776;2023-02-02T00:50:27;1.13;;;0.80;;
9976;SDS011;5029;47.378;11.776;2023-02-02T00:55:32;0.73;;;0.63;;
9976;SDS011;5029;47.378;11.776;2023-02-02T01:00:35;0.93;;;0.60;;
9976;SDS011;5029;47.378;11.776;2023-02-02T01:05:39;0.47;;;0.40;;
9976;SDS011;5029;47.378;11.776;2023-02-02T01:10:44;1.20;;;0.70;;
9976;SDS011;5029;47.378;11.776;2023-02-02T01:15:47;1.03;;;0.40;;
9976;SDS011;5029;47.378;11.776;2023-02-02T01:20:55;1.63;;;0.80;;
9976;SDS011;5029;47.378;11.776;2023-02-02T01:26:01;0.77;;;0.70;;
9976;SDS011;5029;47.378;11.776;2023-02-02T01:31:06;0.90;;;0.73;;
9976;SDS011;5029;47.378;11.776;2023-02-02T01:36:11;0.97;;;0.60;;
9976;SDS011;5029;47.378;11.776;2023-02-02T01:41:19;0.70;;;0.40;;
9976;SDS011;5029;47.378;11.776;2023-02-02T01:46:25;0.50;;;0.50;;
9976;SDS011;5029;47.378;11.776;2023-02-02T01:51:34;1.27;;;0.50;;
9976;SDS011;5029;47.378;11.776;2023-02-02T01:56:45;0.83;;;0.63;;
9976;SDS011;5029;47.378;11.776;2023-02-02T02:01:51;0.60;;;0.50;;
9976;SDS011;5029;47.378;11.776;2023-02-02T02:06:55;1.33;;;0.53;;
9976;SDS011;5029;47.378;11.776;2023-02-02T02:12:00;0.47;;;0.47;;
9976;SDS011;5029;47.378;11.776;2023-02-02T02:17:08;0.70;;;0.50;;
9976;SDS011;5029;47.378;11.776;2023-02-02T02:22:17;1.10;;;0.40;;
9976;SDS011;5029;47.378;11.776;2023-02-02T02:33:22;1.63;;;0.50;;
9976;SDS011;5029;47.378;11.776;2023-02-02T02:38:35;1.90;;;0.80;;
9976;SDS011;5029;47.378;11.776;2023-02-02T02:43:44;0.70;;;0.40;;
9976;SDS011;5029;47.378;11.776;2023-02-02T02:48:56;0.60;;;0.30;;
9976;SDS011;5029;47.378;11.776;2023-02-02T02:54:00;0.43;;;0.40;;
9976;SDS011;5029;47.378;11.776;2023-02-02T02:59:05;0.97;;;0.70;;
9976;SDS011;5029;47.378;11.776;2023-02-02T03:04:20;1.00;;;0.57;;
9976;SDS011;5029;47.378;11.776;2023-02-02T03:09:28;0.33;;;0.30;;
9976;SDS011;5029;47.378;11.776;2023-02-02T03:14:35;0.10;;;0.10;;
9976;SDS011;5029;47.378;11.776;2023-02-02T03:19:41;0.40;;;0.30;;
9976;SDS011;5029;47.378;11.776;2023-02-02T03:24:44;0.40;;;0.20;;
9976;SDS011;5029;47.378;11.776;2023-02-02T03:29:48;1.13;;;0.33;;
9976;SDS011;5029;47.378;11.776;2023-02-02T03:34:52;0.40;;;0.33;;
9976;SDS011;5029;47.378;11.776;2023-02-02T03:39:56;0.43;;;0.40;;
9976;SDS011;5029;47.378;11.776;2023-02-02T03:44:59;0.77;;;0.43;;
9976;SDS011;5029;47.378;11.776;2023-02-02T03:50:04;0.77;;;0.30;;
9976;SDS011;5029;47.378;11.776;2023-02-02T03:55:10;1.43;;;0.50;;
9976;SDS011;5029;47.378;11.776;2023-02-02T04:00:13;0.97;;;0.43;;
9976;SDS011;5029;47.378;11.776;2023-02-02T04:05:19;0.93;;;0.67;;
9976;SDS011;5029;47.378;11.776;2023-02-02T04:10:22;1.23;;;0.60;;
9976;SDS011;5029;47.378;11.776;2023-02-02T04:15:26;0.33;;;0.20;;
9976;SDS011;5029;47.378;11.776;2023-02-02T04:20:31;0.40;;;0.40;;
9976;SDS011;5029;47.378;11.776;2023-02-02T04:25:34;1.73;;;0.50;;
9976;SDS011;5029;47.378;11.776;2023-02-02T04:30:37;0.73;;;0.30;;
9976;SDS011;5029;47.378;11.776;2023-02-02T04:35:42;0.63;;;0.40;;
9976;SDS011;5029;47.378;11.776;2023-02-02T04:40:46;0.53;;;0.50;;
9976;SDS011;5029;47.378;11.776;2023-02-02T04:45:53;1.00;;;0.50;;
9976;SDS011;5029;47.378;11.776;2023-02-02T04:50:59;1.00;;;0.43;;
9976;SDS011;5029;47.378;11.776;2023-02-02T04:56:04;0.93;;;0.60;;
9976;SDS011;5029;47.378;11.776;2023-02-02T05:01:09;1.00;;;0.70;;
9976;SDS011;5029;47.378;11.776;2023-02-02T05:06:15;0.60;;;0.40;;
9976;SDS011;5029;47.378;11.776;2023-02-02T05:11:20;1.70;;;0.70;;
9976;SDS011;5029;47.378;11.776;2023-02-02T05:16:25;1.80;;;0.70;;
9976;SDS011;5029;47.378;11.776;2023-02-02T05:21:31;2.20;;;0.80;;
9976;SDS011;5029;47.378;11.776;2023-02-02T05:26:34;1.27;;;0.70;;
9976;SDS011;5029;47.378;11.776;2023-02-02T05:31:37;1.30;;;0.63;;
9976;SDS011;5029;47.378;11.776;2023-02-02T05:36:42;1.10;;;0.57;;
9976;SDS011;5029;47.378;11.776;2023-02-02T05:41:46;0.40;;;0.40;;
9976;SDS011;5029;47.378;11.776;2023-02-02T05:46:49;2.30;;;0.90;;
9976;SDS011;5029;47.378;11.776;2023-02-02T05:51:55;0.97;;;0.70;;
9976;SDS011;5029;47.378;11.776;2023-02-02T05:56:59;2.63;;;0.70;;
9976;SDS011;5029;47.378;11.776;2023-02-02T06:02:03;3.40;;;0.93;;
9976;SDS011;5029;47.378;11.776;2023-02-02T06:07:08;1.50;;;0.73;;
9976;SDS011;5029;47.378;11.776;2023-02-02T06:12:11;1.27;;;0.70;;
9976;SDS011;5029;47.378;11.776;2023-02-02T06:17:15;1.30;;;0.90;;
9976;SDS011;5029;47.378;11.776;2023-02-02T06:22:19;1.40;;;0.90;;
9976;SDS011;5029;47.378;11.776;2023-02-02T06:27:23;1.23;;;0.73;;
9976;SDS011;5029;47.378;11.776;2023-02-02T06:32:27;1.57;;;1.03;;
9976;SDS011;5029;47.378;11.776;2023-02-02T06:37:32;2.27;;;0.77;;
9976;SDS011;5029;47.378;11.776;2023-02-02T06:42:35;1.77;;;0.80;;
9976;SDS011;5029;47.378;11.776;2023-02-02T06:47:39;1.63;;;0.70;;
9976;SDS011;5029;47.378;11.776;2023-02-02T06:52:47;1.50;;;0.80;;
9976;SDS011;5029;47.378;11.776;2023-02-02T06:57:54;1.93;;;1.00;;
9976;SDS011;5029;47.378;11.776;2023-02-02T07:02:58;2.00;;;0.97;;
9976;SDS011;5029;47.378;11.776;2023-02-02T07:08:03;1.43;;;0.80;;
9976;SDS011;5029;47.378;11.776;2023-02-02T07:13:07;0.97;;;0.70;;
9976;SDS011;5029;47.378;11.776;2023-02-02T07:18:10;1.90;;;0.80;;
9976;SDS011;5029;47.378;11.776;2023-02-02T07:23:15;3.03;;;0.90;;
9976;SDS011;5029;47.378;11.776;2023-02-02T07:28:18;1.80;;;0.80;;
9976;SDS011;5029;47.378;11.776;2023-02-02T07:33:22;2.33;;;1.00;;
9976;SDS011;5029;47.378;11.776;2023-02-02T07:38:26;2.10;;;0.90;;
9976;SDS011;5029;47.378;11.776;2023-02-02T07:43:30;2.07;;;1.47;;
9976;SDS011;5029;47.378;11.776;2023-02-02T07:48:33;1.77;;;1.53;;
9976;SDS011;5029;47.378;11.776;2023-02-02T07:53:39;1.50;;;1.40;;
9976;SDS011;5029;47.378;11.776;2023-02-02T07:58:49;5.13;;;1.20;;
9976;SDS011;5029;47.378;11.776;2023-02-02T08:03:54;1.90;;;1.07;;
9976;SDS011;5029;47.378;11.776;2023-02-02T08:09:02;3.43;;;1.63;;
9976;SDS011;5029;47.378;11.776;2023-02-02T08:14:09;2.67;;;1.23;;
9976;SDS011;5029;47.378;11.776;2023-02-02T08:19:14;2.30;;;1.83;;
9976;SDS011;5029;47.378;11.776;2023-02-02T08:24:19;2.17;;;1.47;;
9976;SDS011;5029;47.378;11.776;2023-02-02T08:29:22;2.33;;;1.57;;
9976;SDS011;5029;47.378;11.776;2023-02-02T08:34:25;2.93;;;1.47;;
9976;SDS011;5029;47.378;11.776;2023-02-02T08:39:30;2.27;;;1.40;;
9976;SDS011;5029;47.378;11.776;2023-02-02T08:44:34;2.10;;;1.50;;
9976;SDS011;5029;47.378;11.776;2023-02-02T08:49:57;2.80;;;1.83;;
9976;SDS011;5029;47.378;11.776;2023-02-02T08:55:02;1.53;;;1.20;;
9976;SDS011;5029;47.378;11.776;2023-02-02T09:00:06;1.73;;;1.37;;
9976;SDS011;5029;47.378;11.776;2023-02-02T09:05:10;3.40;;;1.47;;
9976;SDS011;5029;47.378;11.776;2023-02-02T09:10:15;2.97;;;1.30;;
9976;SDS011;5029;47.378;11.776;2023-02-02T09:15:18;1.87;;;1.30;;
9976;SDS011;5029;47.378;11.776;2023-02-02T09:20:23;2.30;;;1.17;;
9976;SDS011;5029;47.378;11.776;2023-02-02T09:25:28;1.20;;;1.10;;
9976;SDS011;5029;47.378;11.776;2023-02-02T09:30:31;1.70;;;1.13;;
9976;SDS011;5029;47.378;11.776;2023-02-02T09:35:35;3.10;;;1.87;;
9976;SDS011;5029;47.378;11.776;2023-02-02T09:40:39;2.33;;;1.80;;
9976;SDS011;5029;47.378;11.776;2023-02-02T09:45:44;3.93;;;1.73;;
9976;SDS011;5029;47.378;11.776;2023-02-02T09:50:56;2.77;;;1.90;;
9976;SDS011;5029;47.378;11.776;2023-02-02T09:56:07;2.03;;;1.80;;
9976;SDS011;5029;47.378;11.776;2023-02-02T10:01:17;1.77;;;1.67;;
9976;SDS011;5029;47.378;11.776;2023-02-02T10:06:27;3.23;;;1.60;;
9976;SDS011;5029;47.378;11.776;2023-02-02T10:11:39;2.00;;;1.47;;
9976;SDS011;5029;47.378;11.776;2023-02-02T10:16:45;4.53;;;1.70;;
9976;SDS011;5029;47.378;11.776;2023-02-02T10:21:56;2.83;;;1.50;;
9976;SDS011;5029;47.378;11.776;2023-02-02T10:27:10;2.57;;;1.57;;
9976;SDS011;5029;47.378;11.776;2023-02-02T10:32:18;4.80;;;1.83;;
9976;SDS011;5029;47.378;11.776;2023-02-02T10:37:27;1.93;;;1.50;;
9976;SDS011;5029;47.378;11.776;2023-02-02T10:42:42;2.40;;;1.33;;
9976;SDS011;5029;47.378;11.776;2023-02-02T10:48:12;1.87;;;1.43;;
9976;SDS011;5029;47.378;11.776;2023-02-02T10:53:17;1.57;;;1.47;;
9976;SDS011;5029;47.378;11.776;2023-02-02T10:58:25;1.67;;;1.57;;
9976;SDS011;5029;47.378;11.776;2023-02-02T11:03:32;2.40;;;1.87;;
9976;SDS011;5029;47.378;11.776;2023-02-02T11:08:36;2.90;;;1.87;;
9976;SDS011;5029;47.378;11.776;2023-02-02T11:13:44;3.10;;;1.50;;
9976;SDS011;5029;47.378;11.776;2023-02-02T11:18:51;2.80;;;1.47;;
9976;SDS011;5029;47.378;11.776;2023-02-02T11:23:56;4.20;;;3.80;;
9976;SDS011;5029;47.378;11.776;2023-02-02T11:29:03;3.67;;;2.10;;
9976;SDS011;5029;47.378;11.776;2023-02-02T11:34:08;2.83;;;2.27;;
9976;SDS011;5029;47.378;11.776;2023-02-02T11:39:20;1.90;;;1.70;;
9976;SDS011;5029;47.378;11.776;2023-02-02T11:44:27;3.30;;;3.00;;
9976;SDS011;5029;47.378;11.776;2023-02-02T11:49:36;4.10;;;1.60;;
9976;SDS011;5029;47.378;11.776;2023-02-02T11:54:47;2.73;;;2.13;;
9976;SDS011;5029;47.378;11.776;2023-02-02T12:00:13;2.50;;;1.97;;
9976;SDS011;5029;47.378;11.776;2023-02-02T12:05:31;4.00;;;3.30;;
9976;SDS011;5029;47.378;11.776;2023-02-02T12:10:38;2.77;;;1.97;;
9976;SDS011;5029;47.378;11.776;2023-02-02T12:15:49;3.33;;;2.10;;
9976;SDS011;5029;47.378;11.776;2023-02-02T12:21:00;2.40;;;1.70;;
9976;SDS011;5029;47.378;11.776;2023-02-02T12:31:34;1.90;;;1.70;;
9976;SDS011;5029;47.378;11.776;2023-02-02T12:36:48;2.50;;;1.60;;
9976;SDS011;5029;47.378;11.776;2023-02-02T12:47:29;1.33;;;1.23;;
9976;SDS011;5029;47.378;11.776;2023-02-02T12:52:45;1.70;;;1.20;;
9976;SDS011;5029;47.378;11.776;2023-02-02T12:58:04;1.80;;;1.23;;
9976;SDS011;5029;47.378;11.776;2023-02-02T13:03:23;1.50;;;1.10;;
9976;SDS011;5029;47.378;11.776;2023-02-02T13:08:34;0.70;;;0.70;;
9976;SDS011;5029;47.378;11.776;2023-02-02T13:13:44;0.90;;;0.80;;
9976;SDS011;5029;47.378;11.776;2023-02-02T13:18:50;0.93;;;0.77;;
9976;SDS011;5029;47.378;11.776;2023-02-02T13:23:58;1.00;;;0.90;;
9976;SDS011;5029;47.378;11.776;2023-02-02T13:29:06;1.73;;;1.03;;
9976;SDS011;5029;47.378;11.776;2023-02-02T13:34:22;2.20;;;1.17;;
9976;SDS011;5029;47.378;11.776;2023-02-02T13:39:31;1.20;;;1.10;;
9976;SDS011;5029;47.378;11.776;2023-02-02T13:44:37;2.23;;;1.30;;
9976;SDS011;5029;47.378;11.776;2023-02-02T13:49:47;1.27;;;1.17;;
9976;SDS011;5029;47.378;11.776;2023-02-02T13:55:17;1.23;;;1.07;;
9976;SDS011;5029;47.378;11.776;2023-02-02T14:00:32;2.07;;;1.37;;
9976;SDS011;5029;47.378;11.776;2023-02-02T14:05:39;1.63;;;1.37;;
9976;SDS011;5029;47.378;11.776;2023-02-02T14:10:44;1.93;;;1.20;;
9976;SDS011;5029;47.378;11.776;2023-02-02T14:16:01;4.37;;;1.53;;
9976;SDS011;5029;47.378;11.776;2023-02-02T14:21:08;3.03;;;1.87;;
9976;SDS011;5029;47.378;11.776;2023-02-02T14:26:12;2.87;;;2.20;;
9976;SDS011;5029;47.378;11.776;2023-02-02T14:36:52;2.43;;;1.80;;
9976;SDS011;5029;47.378;11.776;2023-02-02T14:47:46;2.40;;;1.90;;
9976;SDS011;5029;47.378;11.776;2023-02-02T14:53:00;2.47;;;2.27;;
9976;SDS011;5029;47.378;11.776;2023-02-02T14:58:06;3.83;;;2.53;;
9976;SDS011;5029;47.378;11.776;2023-02-02T15:03:31;2.33;;;2.13;;
9976;SDS011;5029;47.378;11.776;2023-02-02T15:08:38;4.60;;;2.47;;
9976;SDS011;5029;47.378;11.776;2023-02-02T15:13:41;3.27;;;2.63;;
9976;SDS011;5029;47.378;11.776;2023-02-02T15:18:53;4.00;;;3.03;;
9976;SDS011;5029;47.378;11.776;2023-02-02T15:24:12;3.60;;;2.40;;
9976;SDS011;5029;47.378;11.776;2023-02-02T15:29:25;3.30;;;2.43;;
9976;SDS011;5029;47.378;11.776;2023-02-02T15:34:38;2.57;;;1.80;;
9976;SDS011;5029;47.378;11.776;2023-02-02T15:39:46;1.87;;;1.50;;
9976;SDS011;5029;47.378;11.776;2023-02-02T15:44:52;2.33;;;1.60;;
9976;SDS011;5029;47.378;11.776;2023-02-02T15:49:56;2.30;;;1.40;;
9976;SDS011;5029;47.378;11.776;2023-02-02T15:55:01;2.80;;;1.30;;
9976;SDS011;5029;47.378;11.776;2023-02-02T16:00:22;2.73;;;1.50;;
9976;SDS011;5029;47.378;11.776;2023-02-02T16:05:38;2.33;;;1.60;;
9976;SDS011;5029;47.378;11.776;2023-02-02T16:10:47;4.60;;;1.60;;
9976;SDS011;5029;47.378;11.776;2023-02-02T16:15:53;2.30;;;1.47;;
9976;SDS011;5029;47.378;11.776;2023-02-02T16:20:59;1.50;;;1.37;;
9976;SDS011;5029;47.378;11.776;2023-02-02T16:26:11;2.30;;;1.50;;
9976;SDS011;5029;47.378;11.776;2023-02-02T16:31:16;2.37;;;1.20;;
9976;SDS011;5029;47.378;11.776;2023-02-02T16:36:21;1.87;;;1.50;;
9976;SDS011;5029;47.378;11.776;2023-02-02T16:41:29;3.20;;;2.03;;
9976;SDS011;5029;47.378;11.776;2023-02-02T16:46:42;2.53;;;1.90;;
9976;SDS011;5029;47.378;11.776;2023-02-02T16:52:03;1.53;;;1.43;;
9976;SDS011;5029;47.378;11.776;2023-02-02T16:57:22;2.60;;;1.60;;
9976;SDS011;5029;47.378;11.776;2023-02-02T17:02:28;2.73;;;1.50;;
9976;SDS011;5029;47.378;11.776;2023-02-02T17:07:35;3.97;;;3.60;;
9976;SDS011;5029;47.378;11.776;2023-02-02T17:12:42;2.60;;;1.53;;
9976;SDS011;5029;47.378;11.776;2023-02-02T17:17:47;2.03;;;1.70;;
9976;SDS011;5029;47.378;11.776;2023-02-02T17:22:52;1.60;;;1.50;;
9976;SDS011;5029;47.378;11.776;2023-02-02T17:28:05;1.93;;;1.80;;
9976;SDS011;5029;47.378;11.776;2023-02-02T17:33:12;1.60;;;1.50;;
9976;SDS011;5029;47.378;11.776;2023-02-02T17:38:17;1.77;;;1.30;;
9976;SDS011;5029;47.378;11.776;2023-02-02T17:43:23;2.20;;;1.57;;
9976;SDS011;5029;47.378;11.776;2023-02-02T17:48:27;1.00;;;0.90;;
9976;SDS011;5029;47.378;11.776;2023-02-02T17:53:31;0.90;;;0.80;;
9976;SDS011;5029;47.378;11.776;2023-02-02T17:58:36;1.20;;;1.10;;
9976;SDS011;5029;47.378;11.776;2023-02-02T18:03:40;1.43;;;1.20;;
9976;SDS011;5029;47.378;11.776;2023-02-02T18:08:48;1.77;;;1.30;;
9976;SDS011;5029;47.378;11.776;2023-02-02T18:13:53;1.20;;;1.10;;
9976;SDS011;5029;47.378;11.776;2023-02-02T18:18:59;3.30;;;1.87;;
9976;SDS011;5029;47.378;11.776;2023-02-02T18:24:04;2.00;;;1.50;;
9976;SDS011;5029;47.378;11.776;2023-02-02T18:29:10;2.53;;;1.73;;
9976;SDS011;5029;47.378;11.776;2023-02-02T18:34:15;2.03;;;1.40;;
9976;SDS011;5029;47.378;11.776;2023-02-02T18:39:19;1.70;;;1.60;;
9976;SDS011;5029;47.378;11.776;2023-02-02T18:44:24;3.73;;;2.00;;
9976;SDS011;5029;47.378;11.776;2023-02-02T18:49:29;1.83;;;1.70;;
9976;SDS011;5029;47.378;11.776;2023-02-02T18:54:36;2.03;;;1.73;;
9976;SDS011;5029;47.378;11.776;2023-02-02T18:59:42;2.07;;;1.83;;
9976;SDS011;5029;47.378;11.776;2023-02-02T19:04:47;2.23;;;2.03;;
9976;SDS011;5029;47.378;11.776;2023-02-02T19:10:04;2.30;;;1.80;;
9976;SDS011;5029;47.378;11.776;2023-02-02T19:15:13;3.27;;;1.90;;
9976;SDS011;5029;47.378;11.776;2023-02-02T19:20:23;2.20;;;2.00;;
9976;SDS011;5029;47.378;11.776;2023-02-02T19:25:29;2.07;;;1.70;;
9976;SDS011;5029;47.378;11.776;2023-02-02T19:30:35;2.00;;;1.47;;
9976;SDS011;5029;47.378;11.776;2023-02-02T19:35:46;2.10;;;1.33;;
9976;SDS011;5029;47.378;11.776;2023-02-02T19:40:53;1.87;;;1.30;;
9976;SDS011;5029;47.378;11.776;2023-02-02T19:45:59;1.33;;;1.23;;
9976;SDS011;5029;47.378;11.776;2023-02-02T19:56:30;2.83;;;1.40;;
9976;SDS011;5029;47.378;11.776;2023-02-02T20:01:40;1.60;;;1.37;;
9976;SDS011;5029;47.378;11.776;2023-02-02T20:06:46;1.50;;;1.40;;
9976;SDS011;5029;47.378;11.776;2023-02-02T20:11:59;2.07;;;1.77;;
9976;SDS011;5029;47.378;11.776;2023-02-02T20:17:18;2.13;;;1.70;;
9976;SDS011;5029;47.378;11.776;2023-02-02T20:22:32;1.73;;;1.63;;
9976;SDS011;5029;47.378;11.776;2023-02-02T20:27:37;2.83;;;2.00;;
9976;SDS011;5029;47.378;11.776;2023-02-02T20:32:45;2.13;;;1.93;;
9976;SDS011;5029;47.378;11.776;2023-02-02T20:37:53;3.13;;;2.30;;
9976;SDS011;5029;47.378;11.776;2023-02-02T20:42:57;2.07;;;1.97;;
9976;SDS011;5029;47.378;11.776;2023-02-02T20:48:04;2.60;;;2.30;;
9976;SDS011;5029;47.378;11.776;2023-02-02T20:53:10;3.00;;;2.43;;
9976;SDS011;5029;47.378;11.776;2023-02-02T20:58:17;3.10;;;2.63;;
9976;SDS011;5029;47.378;11.776;2023-02-02T21:03:25;2.40;;;2.20;;
9976;SDS011;5029;47.378;11.776;2023-02-02T21:08:28;2.40;;;2.20;;
9976;SDS011;5029;47.378;11.776;2023-02-02T21:13:32;3.60;;;2.37;;
9976;SDS011;5029;47.378;11.776;2023-02-02T21:18:37;2.97;;;2.60;;
9976;SDS011;5029;47.378;11.776;2023-02-02T21:23:42;2.80;;;2.50;;
9976;SDS011;5029;47.378;11.776;2023-02-02T21:28:47;2.70;;;2.50;;
9976;SDS011;5029;47.378;11.776;2023-02-02T21:33:52;3.50;;;2.60;;
9976;SDS011;5029;47.378;11.776;2023-02-02T21:38:58;3.20;;;2.90;;
9976;SDS011;5029;47.378;11.776;2023-02-02T21:44:08;3.20;;;2.90;;
9976;SDS011;5029;47.378;11.776;2023-02-02T21:49:19;3.37;;;3.07;;
9976;SDS011;5029;47.378;11.776;2023-02-02T21:54:24;2.93;;;2.57;;
9976;SDS011;5029;47.378;11.776;2023-02-02T21:59:32;2.50;;;2.30;;
9976;SDS011;5029;47.378;11.776;2023-02-02T22:04:39;2.30;;;2.10;;
9976;SDS011;5029;47.378;11.776;2023-02-02T22:09:43;2.60;;;2.40;;
9976;SDS011;5029;47.378;11.776;2023-02-02T22:14:49;3.70;;;2.13;;
9976;SDS011;5029;47.378;11.776;2023-02-02T22:19:58;1.93;;;1.83;;
9976;SDS011;5029;47.378;11.776;2023-02-02T22:25:09;1.90;;;1.80;;
9976;SDS011;5029;47.378;11.776;2023-02-02T22:30:27;2.00;;;1.80;;
9976;SDS011;5029;47.378;11.776;2023-02-02T22:35:38;1.90;;;1.80;;
9976;SDS011;5029;47.378;11.776;2023-02-02T22:40:41;2.20;;;2.00;;
9976;SDS011;5029;47.378;11.776;2023-02-02T22:45:45;2.87;;;2.10;;
9976;SDS011;5029;47.378;11.776;2023-02-02T22:50:50;2.20;;;2.00;;
9976;SDS011;5029;47.378;11.776;2023-02-02T22:55:54;2.10;;;1.93;;
9976;SDS011;5029;47.378;11.776;2023-02-02T23:00:57;1.80;;;1.70;;
9976;SDS011;5029;47.378;11.776;2023-02-02T23:06:02;2.27;;;1.70;;
9976;SDS011;5029;47.378;11.776;2023-02-02T23:11:05;2.93;;;1.40;;
9976;SDS011;5029;47.378;11.776;2023-02-02T23:16:09;1.20;;;1.10;;
9976;SDS011;5029;47.378;11.776;2023-02-02T23:21:14;1.30;;;1.00;;
9976;SDS011;5029;47.378;11.776;2023-02-02T23:26:17;1.60;;;1.20;;
9976;SDS011;5029;47.378;11.776;2023-02-02T23:31:21;0.83;;;0.83;;
9976;SDS011;5029;47.378;11.776;2023-02-02T23:36:31;0.90;;;0.90;;
9976;SDS011;5029;47.378;11.776;2023-02-02T23:41:34;0.80;;;0.80;;
9976;SDS011;5029;47.378;11.776;2023-02-02T23:46:38;0.73;;;0.73;;
9976;SDS011;5029;47.378;11.776;2023-02-02T23:51:44;1.10;;;1.00;;
9976;SDS011;5029;47.378;11.776;2023-02-02T23:56:48;1.37;;;0.93;;
